Time;durP1;ratioP1;P1;durP2;ratioP2;P2;SDS_P1;SDS_P2;PMS_P1;PMS_P2;Temp;Humidity;BMP_temperature;BMP_pressure;BME280_temperature;BME280_humidity;BME280_pressure;Samples;Min_cycle;Max_cycle;Signal;HPM_P1;HPM_P2
2022/05/18 00:00:27;;;;;;;1.10;0.70;;;22.00;47.80;;;;;;6244161;28;20032;-65
2022/05/18 00:03:31;;;;;;;0.75;0.68;;;22.00;47.80;;;;;;6243375;28;20049;-66
2022/05/18 00:06:32;;;;;;;1.00;0.77;;;22.00;47.90;;;;;;6243792;28;20030;-65
2022/05/18 00:09:33;;;;;;;1.38;0.80;;;22.00;48.00;;;;;;6243277;28;20129;-66
2022/05/18 00:12:33;;;;;;;0.70;0.70;;;22.00;48.10;;;;;;6243399;28;20028;-65
2022/05/18 00:15:35;;;;;;;0.90;0.75;;;22.00;48.10;;;;;;6243042;28;20112;-66
2022/05/18 00:18:35;;;;;;;1.25;0.82;;;22.00;48.10;;;;;;6243663;28;20051;-66
2022/05/18 00:21:37;;;;;;;1.20;0.88;;;22.00;48.20;;;;;;6225828;28;20480;-66
2022/05/18 00:24:38;;;;;;;1.30;0.88;;;22.00;48.10;;;;;;6243543;28;20022;-66
2022/05/18 00:27:38;;;;;;;1.17;0.93;;;21.90;48.10;;;;;;6243237;28;20041;-66
2022/05/18 00:30:39;;;;;;;1.00;0.85;;;22.00;48.20;;;;;;6243011;28;20033;-66
2022/05/18 00:33:40;;;;;;;0.70;0.70;;;21.90;48.10;;;;;;6243327;28;20022;-66
2022/05/18 00:36:40;;;;;;;1.33;0.90;;;22.00;48.20;;;;;;6243144;28;20101;-66
2022/05/18 00:39:41;;;;;;;0.70;0.60;;;22.00;48.30;;;;;;6245550;28;20112;-66
2022/05/18 00:42:41;;;;;;;1.50;0.88;;;21.90;48.20;;;;;;6248048;28;20395;-66
2022/05/18 00:45:42;;;;;;;0.88;0.70;;;21.90;48.20;;;;;;6248038;28;20083;-66
2022/05/18 00:48:44;;;;;;;0.98;0.88;;;21.90;48.20;;;;;;6248055;28;20113;-66
2022/05/18 00:51:53;;;;;;;0.60;0.60;;;21.90;48.30;;;;;;6247901;28;20032;-66
2022/05/18 00:54:55;;;;;;;0.80;0.75;;;21.90;48.30;;;;;;6247765;28;20041;-67
2022/05/18 00:58:16;;;;;;;1.02;0.65;;;21.90;48.30;;;;;;6247385;28;20531;-67
2022/05/18 01:01:17;;;;;;;1.00;0.85;;;21.90;48.30;;;;;;6247723;28;20026;-66
2022/05/18 01:04:18;;;;;;;1.00;0.90;;;21.90;48.30;;;;;;6247548;28;20059;-66
2022/05/18 01:07:27;;;;;;;0.60;0.60;;;21.90;48.30;;;;;;6247616;28;20038;-66
2022/05/18 01:10:28;;;;;;;0.80;0.80;;;21.90;48.40;;;;;;6247276;28;20037;-66
2022/05/18 01:13:29;;;;;;;0.75;0.65;;;21.90;48.40;;;;;;6247245;28;20108;-67
2022/05/18 01:16:30;;;;;;;0.68;0.65;;;21.90;48.40;;;;;;6246721;28;20033;-66
2022/05/18 01:19:46;;;;;;;0.73;0.68;;;21.90;48.50;;;;;;6247531;28;20053;-66
2022/05/18 01:22:51;;;;;;;0.75;0.70;;;21.90;48.40;;;;;;6247233;28;20022;-66
2022/05/18 01:26:21;;;;;;;0.87;0.67;;;21.90;49.20;;;;;;6247299;28;20048;-66
2022/05/18 01:29:23;;;;;;;1.00;0.80;;;21.90;48.50;;;;;;6246977;28;20439;-66
2022/05/18 01:32:24;;;;;;;0.95;0.80;;;21.90;48.50;;;;;;6229148;28;20018;-65
2022/05/18 01:35:29;;;;;;;3.38;0.73;;;21.90;48.50;;;;;;6247201;28;20080;-66
2022/05/18 01:38:30;;;;;;;0.80;0.70;;;21.90;48.50;;;;;;6246826;28;20531;-66
2022/05/18 01:41:38;;;;;;;1.15;0.70;;;21.90;48.50;;;;;;6246705;28;20021;-66
2022/05/18 01:44:40;;;;;;;1.10;0.80;;;21.90;48.60;;;;;;6246832;28;20079;-68
2022/05/18 01:47:41;;;;;;;1.08;0.60;;;21.90;48.60;;;;;;6246399;28;20441;-66
2022/05/18 01:50:43;;;;;;;1.02;0.90;;;21.90;48.60;;;;;;6246297;28;20072;-67
2022/05/18 01:53:43;;;;;;;0.82;0.70;;;21.90;48.60;;;;;;6228561;28;20396;-67
2022/05/18 01:56:44;;;;;;;1.00;0.70;;;21.90;48.70;;;;;;6246618;28;20037;-66
2022/05/18 01:59:44;;;;;;;0.73;0.73;;;21.90;48.70;;;;;;6246071;28;20028;-66
2022/05/18 02:02:45;;;;;;;0.60;0.60;;;21.90;48.70;;;;;;6246416;28;20112;-66
2022/05/18 02:05:46;;;;;;;1.08;0.75;;;21.80;48.60;;;;;;6246122;28;20071;-66
2022/05/18 02:08:47;;;;;;;1.40;0.88;;;21.80;48.70;;;;;;6246245;28;20030;-65
2022/05/18 02:11:51;;;;;;;0.70;0.70;;;21.80;48.60;;;;;;6245966;28;20072;-66
2022/05/18 02:14:51;;;;;;;0.95;0.80;;;21.80;48.70;;;;;;6228241;28;20056;-66
2022/05/18 02:17:52;;;;;;;1.67;0.82;;;21.80;48.70;;;;;;6245888;28;20025;-66
2022/05/18 02:20:54;;;;;;;1.00;0.90;;;21.80;48.70;;;;;;6245911;28;20442;-66
2022/05/18 02:23:54;;;;;;;0.93;0.70;;;21.80;48.80;;;;;;6245946;28;20032;-66
2022/05/18 02:26:55;;;;;;;0.90;0.80;;;21.80;48.70;;;;;;6244510;28;20116;-66
2022/05/18 02:29:56;;;;;;;1.05;0.80;;;21.80;48.80;;;;;;6245228;28;20148;-66
2022/05/18 02:32:56;;;;;;;1.00;0.80;;;21.80;48.90;;;;;;6245876;28;20431;-65
2022/05/18 02:35:57;;;;;;;0.75;0.70;;;21.80;48.90;;;;;;6245378;28;20053;-66
2022/05/18 02:38:58;;;;;;;0.93;0.88;;;21.80;48.90;;;;;;6245647;28;20034;-66
2022/05/18 02:41:58;;;;;;;0.82;0.70;;;21.80;48.90;;;;;;6245420;28;20037;-66
2022/05/18 02:44:59;;;;;;;0.90;0.70;;;21.80;48.90;;;;;;6245412;28;20034;-66
2022/05/18 02:47:59;;;;;;;0.90;0.70;;;21.80;48.90;;;;;;6245092;28;20021;-66
2022/05/18 02:51:00;;;;;;;0.93;0.70;;;21.80;49.00;;;;;;6245319;28;20064;-67
2022/05/18 02:56:05;;;;;;;0.70;0.60;;;21.80;49.00;;;;;;6244979;28;20379;-68
2022/05/18 02:57:21;;;;;;;1.05;0.75;;;21.80;49.00;;;;;;6244938;28;20032;-66
2022/05/18 03:00:22;;;;;;;1.15;0.82;;;21.80;49.00;;;;;;6245038;28;20021;-66
2022/05/18 03:03:23;;;;;;;0.88;0.73;;;21.80;49.00;;;;;;6244325;28;20075;-66
2022/05/18 03:06:25;;;;;;;1.33;0.95;;;21.80;49.00;;;;;;6244724;28;20025;-67
2022/05/18 03:09:26;;;;;;;1.00;0.68;;;21.80;49.00;;;;;;6249051;28;20045;-65
2022/05/18 03:12:27;;;;;;;0.77;0.70;;;21.80;49.00;;;;;;6269254;28;20017;-65
2022/05/18 03:15:27;;;;;;;0.80;0.70;;;21.80;49.00;;;;;;6269535;28;20024;-66
2022/05/18 03:18:28;;;;;;;0.73;0.70;;;21.80;49.10;;;;;;6269082;28;20086;-67
2022/05/18 03:24:49;;;;;;;0.98;0.77;;;21.80;49.10;;;;;;6255241;28;20395;-65
2022/05/18 03:27:50;;;;;;;0.77;0.70;;;21.80;49.10;;;;;;6269079;28;20017;-66
2022/05/18 03:30:50;;;;;;;1.13;0.80;;;21.80;49.10;;;;;;6261884;28;20035;-65
2022/05/18 03:33:51;;;;;;;0.60;0.60;;;21.80;49.10;;;;;;6268771;28;20098;-65
2022/05/18 03:36:52;;;;;;;0.88;0.63;;;21.80;49.10;;;;;;6268863;28;20025;-66
2022/05/18 03:39:52;;;;;;;0.80;0.75;;;21.80;49.20;;;;;;6250827;28;20037;-66
2022/05/18 03:42:53;;;;;;;0.88;0.70;;;21.70;49.00;;;;;;6268432;28;20116;-66
2022/05/18 03:45:53;;;;;;;0.60;0.60;;;21.80;49.20;;;;;;6268794;28;20107;-66
2022/05/18 03:48:54;;;;;;;0.70;0.52;;;21.80;49.20;;;;;;6268441;28;20033;-66
2022/05/18 03:51:54;;;;;;;0.52;0.52;;;21.70;49.10;;;;;;6264308;28;20388;-66
2022/05/18 03:54:55;;;;;;;0.80;0.70;;;21.80;49.30;;;;;;6243394;28;20064;-66
2022/05/18 03:57:56;;;;;;;0.65;0.60;;;21.80;49.20;;;;;;6243647;28;20028;-67
2022/05/18 04:01:01;;;;;;;0.98;0.70;;;21.70;49.10;;;;;;6243268;28;20090;-66
2022/05/18 04:04:02;;;;;;;0.60;0.60;;;21.80;49.20;;;;;;6249106;28;20028;-65
2022/05/18 04:07:02;;;;;;;0.60;0.60;;;21.80;49.20;;;;;;6265361;28;20403;-66
2022/05/18 04:10:04;;;;;;;0.60;0.60;;;21.70;49.10;;;;;;6243469;28;20164;-66
2022/05/18 04:13:12;;;;;;;0.60;0.60;;;21.70;49.20;;;;;;6225088;28;20511;-67
2022/05/18 04:16:13;;;;;;;0.80;0.60;;;21.80;49.30;;;;;;6243519;28;20060;-66
2022/05/18 04:19:15;;;;;;;0.73;0.70;;;21.70;49.20;;;;;;6243577;28;20025;-66
2022/05/18 04:22:16;;;;;;;1.13;0.90;;;21.70;49.20;;;;;;6243361;28;20025;-66
2022/05/18 04:25:20;;;;;;;0.70;0.60;;;21.70;49.20;;;;;;6243030;28;20032;-66
2022/05/18 04:28:21;;;;;;;0.60;0.60;;;21.70;49.20;;;;;;6243328;28;20029;-67
2022/05/18 04:31:22;;;;;;;1.10;0.68;;;21.70;49.20;;;;;;6242995;28;20095;-66
2022/05/18 04:34:22;;;;;;;0.60;0.60;;;21.70;49.20;;;;;;6242908;28;20101;-67
2022/05/18 04:37:23;;;;;;;0.55;0.50;;;21.70;49.20;;;;;;6243395;28;20159;-66
2022/05/18 04:40:24;;;;;;;0.70;0.68;;;21.70;49.20;;;;;;6243029;28;20025;-66
2022/05/18 04:43:24;;;;;;;1.10;0.65;;;21.70;49.20;;;;;;6243057;28;20044;-66
2022/05/18 04:46:25;;;;;;;0.90;0.65;;;21.70;49.30;;;;;;6243117;28;20022;-66
2022/05/18 04:49:27;;;;;;;1.00;0.80;;;21.70;49.20;;;;;;6243243;28;20083;-66
2022/05/18 04:52:28;;;;;;;0.65;0.60;;;21.70;49.30;;;;;;6242911;28;20539;-66
2022/05/18 04:55:29;;;;;;;1.23;0.70;;;21.70;49.30;;;;;;6243057;28;20048;-66
2022/05/18 04:58:29;;;;;;;1.00;0.70;;;21.70;49.30;;;;;;6242869;28;20025;-69
2022/05/18 05:01:30;;;;;;;0.70;0.70;;;21.70;49.30;;;;;;6242482;28;20026;-66
2022/05/18 05:04:32;;;;;;;0.70;0.68;;;21.70;49.30;;;;;;6225075;28;20030;-66
2022/05/18 05:07:33;;;;;;;0.85;0.80;;;21.70;49.30;;;;;;6250136;28;20484;-66
2022/05/18 05:10:34;;;;;;;0.80;0.60;;;21.70;49.30;;;;;;6267296;28;20052;-66
2022/05/18 05:13:35;;;;;;;0.68;0.63;;;21.70;49.40;;;;;;6249337;28;20025;-66
2022/05/18 05:16:36;;;;;;;0.60;0.60;;;21.70;49.40;;;;;;6267679;28;20021;-67
2022/05/18 05:19:36;;;;;;;0.88;0.70;;;21.70;49.30;;;;;;6267540;28;20059;-66
2022/05/18 05:22:37;;;;;;;0.65;0.60;;;21.70;49.30;;;;;;6249588;28;20021;-66
2022/05/18 05:25:38;;;;;;;0.88;0.73;;;21.70;49.40;;;;;;6251351;28;20029;-66
2022/05/18 05:28:39;;;;;;;1.15;0.60;;;21.70;49.40;;;;;;6271711;28;20032;-66
2022/05/18 05:31:40;;;;;;;0.75;0.68;;;21.70;49.40;;;;;;6250970;28;20481;-66
2022/05/18 05:34:41;;;;;;;0.50;0.50;;;21.70;49.40;;;;;;6229039;28;20060;-66
2022/05/18 05:37:42;;;;;;;0.93;0.60;;;21.70;49.40;;;;;;6246767;28;20507;-66
2022/05/18 05:40:42;;;;;;;1.23;0.77;;;21.70;49.40;;;;;;6246620;28;20126;-66
2022/05/18 05:43:43;;;;;;;0.93;0.70;;;21.70;49.40;;;;;;6247004;28;20105;-66
2022/05/18 05:46:44;;;;;;;0.82;0.60;;;21.70;49.40;;;;;;6246749;28;20064;-66
2022/05/18 05:49:45;;;;;;;0.75;0.65;;;21.70;49.40;;;;;;6246916;28;20083;-66
2022/05/18 05:52:46;;;;;;;0.98;0.57;;;21.70;49.50;;;;;;6228857;28;20427;-66
2022/05/18 05:55:46;;;;;;;0.85;0.52;;;21.70;49.50;;;;;;6246590;28;20028;-66
2022/05/18 05:58:48;;;;;;;1.13;0.60;;;21.70;50.20;;;;;;6246566;28;20029;-66
2022/05/18 06:01:52;;;;;;;0.80;0.60;;;21.70;49.40;;;;;;6223376;28;20026;-66
2022/05/18 06:04:55;;;;;;;1.13;0.67;;;21.70;49.50;;;;;;6206486;28;20026;-67
2022/05/18 06:07:55;;;;;;;0.57;0.57;;;21.70;49.40;;;;;;6224020;28;20026;-65
2022/05/18 06:10:58;;;;;;;0.60;0.60;;;21.70;49.50;;;;;;6223443;28;20073;-66
2022/05/18 06:13:58;;;;;;;0.90;0.70;;;21.70;49.50;;;;;;6223731;28;20026;-66
2022/05/18 06:16:59;;;;;;;1.75;0.77;;;21.70;49.50;;;;;;6223791;28;20029;-66
2022/05/18 06:19:59;;;;;;;0.73;0.60;;;21.70;49.60;;;;;;6223688;28;20026;-65
2022/05/18 06:23:02;;;;;;;0.40;0.40;;;21.70;49.30;;;;;;6223515;28;20065;-66
2022/05/18 06:26:05;;;;;;;0.70;0.52;;;21.70;49.30;;;;;;6223219;28;20088;-66
2022/05/18 06:29:06;;;;;;;0.88;0.70;;;21.70;49.30;;;;;;6223066;28;20049;-65
2022/05/18 06:32:07;;;;;;;1.30;0.63;;;21.70;49.40;;;;;;6247442;28;20045;-66
2022/05/18 06:35:08;;;;;;;0.85;0.70;;;21.70;49.40;;;;;;6229721;28;20022;-65
2022/05/18 06:38:13;;;;;;;1.02;0.80;;;21.70;49.40;;;;;;6246126;28;20036;-66
2022/05/18 06:41:23;;;;;;;4.25;0.80;;;21.70;49.40;;;;;;6247366;28;20545;-66
2022/05/18 06:44:25;;;;;;;0.70;0.60;;;21.70;49.40;;;;;;6247282;28;20021;-65
2022/05/18 06:47:26;;;;;;;0.50;0.47;;;21.70;49.40;;;;;;6229834;28;20025;-65
2022/05/18 06:50:27;;;;;;;0.98;0.88;;;21.70;49.40;;;;;;6247296;28;20029;-65
2022/05/18 06:53:28;;;;;;;0.90;0.70;;;21.70;49.40;;;;;;6247197;28;20040;-65
2022/05/18 06:56:32;;;;;;;0.65;0.50;;;21.70;49.50;;;;;;6247245;28;20029;-65
2022/05/18 06:59:32;;;;;;;0.63;0.60;;;21.70;49.40;;;;;;6247158;28;20108;-66
2022/05/18 07:02:33;;;;;;;1.08;0.70;;;21.70;49.40;;;;;;6229210;28;20036;-65
2022/05/18 07:05:33;;;;;;;0.70;0.70;;;21.70;49.50;;;;;;6246992;28;20575;-67
2022/05/18 07:08:34;;;;;;;0.60;0.55;;;21.70;49.40;;;;;;6262255;28;20426;-65
2022/05/18 07:11:38;;;;;;;0.73;0.73;;;21.70;49.40;;;;;;6271409;28;20055;-65
2022/05/18 07:14:39;;;;;;;0.98;0.80;;;21.70;49.50;;;;;;6271217;28;20021;-66
2022/05/18 07:17:41;;;;;;;1.40;0.80;;;21.70;49.50;;;;;;6271519;28;20021;-65
2022/05/18 07:20:42;;;;;;;1.00;0.80;;;21.70;49.50;;;;;;6271222;28;20044;-63
2022/05/18 07:23:42;;;;;;;0.70;0.60;;;21.70;49.50;;;;;;6271060;28;20035;-65
2022/05/18 07:26:44;;;;;;;1.35;0.80;;;21.70;50.20;;;;;;6271248;28;20033;-66
2022/05/18 07:29:44;;;;;;;0.77;0.70;;;21.70;49.50;;;;;;6265274;28;20057;-66
2022/05/18 07:32:45;;;;;;;0.70;0.60;;;21.70;49.50;;;;;;6246265;28;20080;-67
2022/05/18 07:35:47;;;;;;;1.40;0.60;;;21.70;49.50;;;;;;6245877;28;20041;-66
2022/05/18 07:38:48;;;;;;;0.70;0.55;;;21.70;49.50;;;;;;6246363;28;20029;-65
2022/05/18 07:41:49;;;;;;;0.63;0.63;;;21.70;49.50;;;;;;6245920;28;20022;-66
2022/05/18 07:44:50;;;;;;;0.80;0.65;;;21.70;49.50;;;;;;6246204;28;20044;-66
2022/05/18 07:47:55;;;;;;;1.30;0.77;;;21.70;49.50;;;;;;6245411;28;20017;-66
2022/05/18 07:50:57;;;;;;;0.50;0.50;;;21.70;49.50;;;;;;6245919;28;20075;-65
2022/05/18 07:53:59;;;;;;;0.60;0.60;;;21.70;49.50;;;;;;6245700;28;20018;-65
2022/05/18 07:57:01;;;;;;;0.93;0.70;;;21.70;49.50;;;;;;6245772;28;20026;-66
2022/05/18 08:00:03;;;;;;;0.90;0.55;;;21.70;49.50;;;;;;6245571;28;20040;-65
2022/05/18 08:03:05;;;;;;;1.05;0.60;;;21.70;49.50;;;;;;6245798;28;20048;-65
2022/05/18 08:06:06;;;;;;;1.00;0.70;;;21.70;49.50;;;;;;6245573;28;20032;-67
2022/05/18 08:09:07;;;;;;;1.00;0.65;;;21.70;49.50;;;;;;6265299;28;20029;-66
2022/05/18 08:15:29;;;;;;;0.88;0.75;;;21.70;49.50;;;;;;6270139;28;20017;-65
2022/05/18 08:18:30;;;;;;;1.20;0.60;;;21.70;49.60;;;;;;6252580;28;20033;-66
2022/05/18 08:21:31;;;;;;;2.13;0.85;;;21.70;49.50;;;;;;6269941;28;20051;-66
2022/05/18 08:24:33;;;;;;;1.20;0.70;;;21.70;49.60;;;;;;6270409;28;20043;-65
2022/05/18 08:27:34;;;;;;;0.68;0.57;;;21.70;49.50;;;;;;6269919;28;20368;-66
2022/05/18 08:30:36;;;;;;;0.40;0.40;;;21.70;49.60;;;;;;6258169;28;20130;-65
2022/05/18 08:33:37;;;;;;;0.68;0.60;;;21.70;49.60;;;;;;6245028;28;20025;-66
2022/05/18 08:36:39;;;;;;;0.60;0.52;;;21.70;49.60;;;;;;6245523;28;20049;-65
2022/05/18 08:39:41;;;;;;;0.80;0.80;;;21.70;49.60;;;;;;6227905;28;20029;-66
2022/05/18 08:42:42;;;;;;;1.05;0.70;;;21.70;49.60;;;;;;6245474;28;20025;-66
2022/05/18 08:45:48;;;;;;;3.08;0.90;;;21.70;49.60;;;;;;6245266;28;20025;-65
2022/05/18 08:48:57;;;;;;;0.95;0.65;;;21.60;49.50;;;;;;6245235;28;20022;-66
2022/05/18 08:52:21;;;;;;;0.80;0.70;;;21.70;49.60;;;;;;6245259;28;20021;-65
2022/05/18 08:55:37;;;;;;;1.40;0.60;;;21.70;49.60;;;;;;6245055;28;20021;-65
2022/05/18 08:58:45;;;;;;;1.05;0.77;;;21.70;49.60;;;;;;6244820;28;20548;-65
2022/05/18 09:01:51;;;;;;;0.50;0.50;;;21.70;49.60;;;;;;6249038;28;20084;-65
2022/05/18 09:04:58;;;;;;;0.52;0.50;;;21.70;49.60;;;;;;6249851;28;20017;-66
2022/05/18 09:08:19;;;;;;;0.60;0.60;;;21.70;49.70;;;;;;6260592;28;20114;-66
2022/05/18 09:11:21;;;;;;;0.75;0.60;;;21.70;49.60;;;;;;6248004;28;20519;-66
2022/05/18 09:14:27;;;;;;;0.90;0.70;;;21.60;49.60;;;;;;6249447;28;20032;-65
2022/05/18 09:17:38;;;;;;;0.63;0.50;;;21.70;49.70;;;;;;6249745;28;20072;-65
2022/05/18 09:21:01;;;;;;;1.10;0.70;;;21.70;49.60;;;;;;6249526;28;20033;-65
2022/05/18 09:24:20;;;;;;;0.80;0.70;;;21.60;49.60;;;;;;6249288;28;20025;-65
2022/05/18 09:28:03;;;;;;;0.50;0.50;;;21.70;49.60;;;;;;6249202;28;20045;-66
2022/05/18 09:31:39;;;;;;;0.77;0.60;;;21.70;49.70;;;;;;6232873;28;20026;-65
2022/05/18 09:34:59;;;;;;;;;;;21.60;49.60;;;;;;6224871;28;20032;-65
2022/05/18 09:38:24;;;;;;;0.50;0.50;;;21.70;49.70;;;;;;6223305;28;20237;-65
2022/05/18 09:41:32;;;;;;;0.85;0.63;;;21.60;49.60;;;;;;6224360;28;20026;-66
2022/05/18 09:44:40;;;;;;;0.82;0.60;;;21.60;49.60;;;;;;6224119;28;20493;-65
2022/05/18 09:47:50;;;;;;;0.50;0.50;;;21.60;49.60;;;;;;6224279;28;20064;-66
2022/05/18 09:50:52;;;;;;;0.70;0.60;;;21.60;49.60;;;;;;6222705;28;20026;-65
2022/05/18 09:53:53;;;;;;;2.30;0.70;;;21.60;49.60;;;;;;6224043;28;20097;-67
2022/05/18 09:57:17;;;;;;;0.75;0.65;;;21.60;49.60;;;;;;6223962;28;20443;-66
2022/05/18 10:00:24;;;;;;;0.63;0.63;;;21.60;49.60;;;;;;6223997;28;20064;-65
2022/05/18 10:10:12;;;;;;;1.02;0.80;;;21.60;49.70;;;;;;6233716;28;20042;-65
2022/05/18 10:13:16;;;;;;;1.05;0.80;;;21.60;49.60;;;;;;6247796;28;20018;-65
2022/05/18 10:16:30;;;;;;;0.77;0.60;;;21.60;49.60;;;;;;6248186;28;20025;-66
2022/05/18 10:19:51;;;;;;;0.88;0.50;;;21.60;49.60;;;;;;6248105;28;20036;-65
2022/05/18 10:22:53;;;;;;;0.70;0.70;;;21.60;49.70;;;;;;6247881;28;20514;-65
2022/05/18 10:25:54;;;;;;;0.50;0.50;;;21.60;49.60;;;;;;6247871;28;20655;-65
2022/05/18 10:29:23;;;;;;;0.60;0.50;;;21.60;49.60;;;;;;6247721;28;20530;-66
2022/05/18 10:32:29;;;;;;;0.50;0.50;;;21.60;49.70;;;;;;6239782;28;20041;-66
2022/05/18 10:35:41;;;;;;;0.40;0.40;;;21.60;49.70;;;;;;6247773;28;20025;-65
2022/05/18 10:39:04;;;;;;;0.43;0.43;;;21.60;49.60;;;;;;6247733;28;20542;-65
2022/05/18 10:42:16;;;;;;;0.68;0.60;;;21.60;49.70;;;;;;6229874;28;20032;-65
2022/05/18 10:45:26;;;;;;;0.47;0.47;;;21.60;49.70;;;;;;6247438;28;20022;-66
2022/05/18 10:48:29;;;;;;;0.65;0.63;;;21.60;49.70;;;;;;6229570;28;20025;-65
2022/05/18 10:51:32;;;;;;;0.50;0.50;;;21.60;49.70;;;;;;6247086;28;20048;-65
2022/05/18 10:54:33;;;;;;;0.65;0.47;;;21.60;49.70;;;;;;6247554;28;20049;-65
2022/05/18 10:57:38;;;;;;;0.47;0.47;;;21.60;49.70;;;;;;6247160;28;20018;-65
2022/05/18 11:00:52;;;;;;;0.50;0.50;;;21.60;49.70;;;;;;6247428;28;20108;-65
2022/05/18 11:04:11;;;;;;;0.45;0.43;;;21.60;49.70;;;;;;6246915;28;20037;-65
2022/05/18 11:07:12;;;;;;;0.68;0.60;;;21.60;49.70;;;;;;6250856;28;20476;-65
2022/05/18 11:10:13;;;;;;;0.40;0.40;;;21.60;49.70;;;;;;6271412;28;20099;-65
2022/05/18 11:13:24;;;;;;;1.75;0.50;;;21.60;49.70;;;;;;6254017;28;20029;-65
2022/05/18 11:16:45;;;;;;;0.65;0.50;;;21.60;49.70;;;;;;6271175;28;20017;-65
2022/05/18 11:19:57;;;;;;;0.60;0.50;;;21.60;49.70;;;;;;6271384;28;20052;-65
2022/05/18 11:23:00;;;;;;;0.80;0.70;;;21.60;49.70;;;;;;6270504;28;20388;-66
2022/05/18 11:26:36;;;;;;;0.63;0.60;;;21.60;49.70;;;;;;6271446;28;20509;-65
2022/05/18 11:29:51;;;;;;;0.63;0.60;;;21.60;49.70;;;;;;6264756;28;20111;-66
2022/05/18 11:33:04;;;;;;;0.73;0.40;;;21.60;49.70;;;;;;6260712;28;20096;-66
2022/05/18 11:36:25;;;;;;;0.60;0.50;;;21.60;49.70;;;;;;6270917;28;20059;-65
2022/05/18 11:39:42;;;;;;;0.43;0.40;;;21.60;49.70;;;;;;6271204;28;20029;-66
2022/05/18 11:43:28;;;;;;;0.82;0.50;;;21.60;49.70;;;;;;6271173;28;20832;-66
2022/05/18 11:47:05;;;;;;;0.40;0.40;;;21.60;49.70;;;;;;6271029;28;20021;-67
2022/05/18 11:50:21;;;;;;;0.90;0.70;;;21.60;49.70;;;;;;6270917;28;20420;-65
2022/05/18 11:53:28;;;;;;;;;;;21.60;49.70;;;;;;6254950;28;20400;-66
2022/05/18 11:56:56;;;;;;;0.50;0.45;;;21.60;49.70;;;;;;6245967;28;20325;-65
2022/05/18 12:00:10;;;;;;;0.60;0.50;;;21.60;49.70;;;;;;6245765;28;20087;-67
2022/05/18 12:03:48;;;;;;;0.60;0.55;;;21.60;49.70;;;;;;6228186;28;20048;-66
2022/05/18 12:07:17;;;;;;;0.60;0.50;;;21.60;49.70;;;;;;6228285;28;20029;-65
2022/05/18 12:10:42;;;;;;;0.40;0.40;;;21.60;49.70;;;;;;6245600;28;20492;-65
2022/05/18 12:14:24;;;;;;;0.50;0.50;;;21.60;49.70;;;;;;6245899;28;20025;-64
2022/05/18 12:17:44;;;;;;;0.47;0.47;;;21.60;49.70;;;;;;6246047;28;20029;-66
2022/05/18 12:21:30;;;;;;;0.35;0.35;;;21.60;49.80;;;;;;6244419;28;20028;-65
2022/05/18 12:24:32;;;;;;;0.40;0.40;;;21.60;49.80;;;;;;6208989;28;20384;-65
2022/05/18 12:27:33;;;;;;;0.43;0.40;;;21.60;49.80;;;;;;6245437;28;20052;-66
2022/05/18 12:30:37;;;;;;;1.27;0.63;;;21.60;49.80;;;;;;6245591;28;20130;-65
2022/05/18 12:33:47;;;;;;;0.50;0.45;;;21.60;49.80;;;;;;6245561;28;20018;-65
2022/05/18 12:37:01;;;;;;;0.40;0.40;;;21.60;49.80;;;;;;6250913;28;20030;-65
2022/05/18 12:40:15;;;;;;;0.32;0.32;;;21.60;49.80;;;;;;6250686;28;20111;-66
2022/05/18 12:43:32;;;;;;;0.80;0.60;;;21.60;49.80;;;;;;6250430;28;20404;-65
2022/05/18 12:46:54;;;;;;;0.68;0.50;;;21.60;49.80;;;;;;6250828;28;20040;-66
2022/05/18 12:50:02;;;;;;;0.93;0.55;;;21.60;49.80;;;;;;6232565;28;20514;-65
2022/05/18 12:53:13;;;;;;;0.50;0.40;;;21.60;49.80;;;;;;6250185;28;20630;-66
2022/05/18 12:56:21;;;;;;;0.40;0.40;;;21.60;49.80;;;;;;6250223;28;20075;-65
2022/05/18 12:59:24;;;;;;;0.55;0.55;;;21.60;50.50;;;;;;6232557;28;20116;-66
2022/05/18 13:02:48;;;;;;;0.47;0.40;;;21.60;49.80;;;;;;6249987;28;20025;-65
2022/05/18 13:05:54;;;;;;;0.50;0.40;;;21.60;49.80;;;;;;6249923;28;20511;-66
2022/05/18 13:09:00;;;;;;;0.35;0.35;;;21.60;49.80;;;;;;6268009;28;20096;-65
2022/05/18 13:12:17;;;;;;;1.13;0.50;;;21.60;49.90;;;;;;6274466;28;20082;-64
2022/05/18 13:15:20;;;;;;;0.40;0.40;;;21.60;49.90;;;;;;6274374;28;20119;-66
2022/05/18 13:18:32;;;;;;;0.40;0.40;;;21.60;49.90;;;;;;6256625;28;20120;-66
2022/05/18 13:21:32;;;;;;;0.40;0.40;;;21.60;49.90;;;;;;6274361;28;20067;-66
2022/05/18 13:24:54;;;;;;;0.35;0.35;;;21.60;49.90;;;;;;6274467;28;20044;-65
2022/05/18 13:27:57;;;;;;;0.30;0.30;;;21.60;49.80;;;;;;6258926;28;20071;-66
2022/05/18 13:31:00;;;;;;;0.50;0.50;;;21.60;49.90;;;;;;6249291;28;20025;-66
2022/05/18 13:34:18;;;;;;;0.88;0.40;;;21.60;49.90;;;;;;6249573;28;20385;-66
2022/05/18 13:37:22;;;;;;;0.70;0.50;;;21.60;49.90;;;;;;6249306;28;20498;-65
2022/05/18 13:40:25;;;;;;;0.43;0.43;;;21.60;49.90;;;;;;6249449;28;20100;-66
2022/05/18 13:43:31;;;;;;;0.40;0.40;;;21.60;49.90;;;;;;6249239;28;20033;-66
2022/05/18 13:46:32;;;;;;;;;;;21.60;49.90;;;;;;6249082;28;20052;-66
2022/05/18 13:49:41;;;;;;;0.50;0.40;;;21.60;49.90;;;;;;6248984;28;19920;-66
2022/05/18 13:52:42;;;;;;;0.80;0.55;;;21.60;49.90;;;;;;6248851;28;20033;-65
2022/05/18 13:55:45;;;;;;;0.40;0.40;;;21.60;49.90;;;;;;6231422;28;20120;-66
2022/05/18 13:58:48;;;;;;;0.40;0.40;;;21.60;50.00;;;;;;6248654;28;20465;-66
2022/05/18 14:01:53;;;;;;;0.47;0.45;;;21.60;49.90;;;;;;6231191;28;20026;-65
2022/05/18 14:04:58;;;;;;;0.30;0.30;;;21.60;49.90;;;;;;6248574;28;20075;-66
2022/05/18 14:08:01;;;;;;;0.50;0.40;;;21.60;49.90;;;;;;6259505;28;20071;-66
2022/05/18 14:11:06;;;;;;;0.43;0.43;;;21.60;50.00;;;;;;6248182;28;20041;-66
2022/05/18 14:14:07;;;;;;;0.88;0.57;;;21.60;50.00;;;;;;6248835;28;20032;-66
2022/05/18 14:17:11;;;;;;;0.47;0.47;;;21.60;50.00;;;;;;6248433;28;20025;-66
2022/05/18 14:20:29;;;;;;;0.43;0.43;;;21.60;49.90;;;;;;6248291;28;20029;-66
2022/05/18 14:23:46;;;;;;;0.70;0.60;;;21.60;50.00;;;;;;6230341;28;20120;-66
2022/05/18 14:27:08;;;;;;;0.52;0.40;;;21.60;50.00;;;;;;6248046;28;20606;-67
2022/05/18 14:30:23;;;;;;;0.40;0.40;;;21.60;50.00;;;;;;6247811;28;20021;-65
2022/05/18 14:33:35;;;;;;;0.30;0.30;;;21.60;50.00;;;;;;6248290;28;20104;-66
2022/05/18 14:36:42;;;;;;;0.60;0.50;;;21.60;50.00;;;;;;6247827;28;20099;-65
2022/05/18 14:39:46;;;;;;;0.57;0.50;;;21.60;50.00;;;;;;6247974;28;20053;-65
2022/05/18 14:42:53;;;;;;;1.00;0.55;;;21.60;50.00;;;;;;6247869;28;20151;-65
2022/05/18 14:46:21;;;;;;;0.50;0.40;;;21.60;50.00;;;;;;6247755;28;20032;-66
2022/05/18 14:49:23;;;;;;;0.45;0.40;;;21.60;50.00;;;;;;6233670;28;20029;-65
2022/05/18 14:52:34;;;;;;;0.70;0.55;;;21.60;50.00;;;;;;6258124;28;20436;-66
2022/05/18 14:55:55;;;;;;;0.40;0.40;;;21.50;49.90;;;;;;6247496;28;20087;-65
2022/05/18 14:58:58;;;;;;;0.35;0.35;;;21.60;50.00;;;;;;6232532;28;20034;-65
2022/05/18 15:02:03;;;;;;;0.85;0.70;;;21.60;50.00;;;;;;6247496;28;20044;-66
2022/05/18 15:05:07;;;;;;;;;;;21.60;50.10;;;;;;6230107;28;20021;-65
2022/05/18 15:08:13;;;;;;;0.70;0.50;;;21.60;50.00;;;;;;6229542;28;19940;-65
2022/05/18 15:11:18;;;;;;;0.52;0.50;;;21.60;50.10;;;;;;6247038;28;20045;-65
2022/05/18 15:14:38;;;;;;;0.55;0.55;;;21.50;50.00;;;;;;6247096;28;20028;-66
2022/05/18 15:17:59;;;;;;;0.50;0.35;;;21.60;50.10;;;;;;6229188;28;20029;-65
2022/05/18 15:21:27;;;;;;;0.43;0.43;;;21.60;50.10;;;;;;6247040;28;20030;-65
2022/05/18 15:24:30;;;;;;;0.47;0.40;;;21.60;50.10;;;;;;6247001;28;20033;-66
2022/05/18 15:27:31;;;;;;;0.40;0.40;;;21.60;50.20;;;;;;6246858;28;20503;-66
2022/05/18 15:30:39;;;;;;;0.50;0.50;;;21.50;50.10;;;;;;6246546;28;20029;-65
2022/05/18 15:33:52;;;;;;;0.68;0.45;;;21.60;50.00;;;;;;6246619;28;20116;-65
2022/05/18 15:36:53;;;;;;;0.50;0.50;;;21.60;50.10;;;;;;6246698;28;20025;-66
2022/05/18 15:39:53;;;;;;;0.40;0.40;;;21.60;50.10;;;;;;6246472;28;20044;-66
2022/05/18 15:42:54;;;;;;;0.40;0.40;;;21.50;50.00;;;;;;6262920;28;20029;-66
2022/05/18 15:46:04;;;;;;;0.40;0.38;;;21.50;50.00;;;;;;6253308;28;20081;-65
2022/05/18 15:49:08;;;;;;;0.50;0.50;;;21.60;50.10;;;;;;6270951;28;20035;-67
2022/05/18 15:52:11;;;;;;;1.05;0.50;;;21.60;50.10;;;;;;6265033;28;20029;-65
2022/05/18 15:55:19;;;;;;;1.55;0.52;;;21.60;50.10;;;;;;6246253;28;20053;-66
2022/05/18 15:58:20;;;;;;;0.50;0.50;;;21.50;50.00;;;;;;6246436;28;20029;-66
2022/05/18 16:01:21;;;;;;;0.80;0.60;;;21.60;50.20;;;;;;6228171;28;20032;-66
2022/05/18 16:04:21;;;;;;;0.38;0.38;;;21.60;50.20;;;;;;6246079;28;20030;-65
2022/05/18 16:07:23;;;;;;;0.60;0.40;;;21.60;50.20;;;;;;6245998;28;20026;-66
2022/05/18 16:10:24;;;;;;;0.35;0.32;;;21.50;50.10;;;;;;6245677;28;20136;-67
2022/05/18 16:13:33;;;;;;;0.85;0.40;;;21.60;50.20;;;;;;6244978;28;20128;-69
2022/05/18 16:16:35;;;;;;;0.45;0.30;;;21.50;50.20;;;;;;6225707;28;20060;-67
2022/05/18 16:19:37;;;;;;;0.40;0.40;;;21.60;50.20;;;;;;6243675;28;20064;-66
2022/05/18 16:22:40;;;;;;;0.45;0.35;;;21.50;50.10;;;;;;6243582;28;20037;-66